Time;durP1;ratioP1;P1;durP2;ratioP2;P2;SDS_P1;SDS_P2;PMS_P1;PMS_P2;Temp;Humidity;BMP_temperature;BMP_pressure;BME280_temperature;BME280_humidity;BME280_pressure;Samples;Min_cycle;Max_cycle;Signal;HPM_P1;HPM_P2
2022/02/11 00:09:06;;;;;;;7.07;4.78;;;;;;;;;;5011141;28;20185;-86
2022/02/11 00:11:37;;;;;;;8.50;4.15;;;;;;;;;;5045915;28;20206;-85
2022/02/11 00:14:08;;;;;;;7.78;4.75;;;;;;;;;;5022523;28;20243;-86
2022/02/11 00:16:35;;;;;;;5.32;4.78;;;;;;;;;;5038330;28;20198;-85
2022/02/11 00:19:02;;;;;;;14.57;6.13;;;;;;;;;;5018368;28;20205;-85
2022/02/11 00:21:29;;;;;;;6.32;4.78;;;;;;;;;;5030890;28;20183;-85
2022/02/11 00:23:55;;;;;;;6.72;4.93;;;;;;;;;;5038590;28;20218;-85
2022/02/11 00:26:27;;;;;;;6.38;4.20;;;;;;;;;;5019365;28;20178;-84
2022/02/11 00:34:09;;;;;;;5.60;4.60;;;;;;;;;;5014915;28;20186;-84
2022/02/11 00:36:45;;;;;;;6.80;4.85;;;;;;;;;;5015060;28;20194;-85
2022/02/11 01:03:19;;;;;;;9.13;5.15;;;;;;;;;;4980882;28;20214;-84
2022/02/11 01:05:46;;;;;;;7.38;5.63;;;;;;;;;;4997616;28;20187;-84
2022/02/11 01:08:12;;;;;;;6.35;4.85;;;;;;;;;;4997010;28;20175;-84
2022/02/11 01:10:38;;;;;;;6.35;4.88;;;;;;;;;;4963642;28;20189;-84
2022/02/11 01:13:05;;;;;;;7.43;5.50;;;;;;;;;;4960760;28;20264;-84
2022/02/11 01:15:33;;;;;;;7.32;4.40;;;;;;;;;;4967332;28;20192;-84
2022/02/11 01:18:03;;;;;;;6.18;4.85;;;;;;;;;;4985229;28;20248;-84
2022/02/11 01:20:52;;;;;;;6.65;4.82;;;;;;;;;;5000722;28;20188;-84
2022/02/11 01:26:02;;;;;;;10.10;4.95;;;;;;;;;;4985585;28;20176;-84
2022/02/11 01:44:23;;;;;;;6.07;4.53;;;;;;;;;;5017463;28;20391;-84
2022/02/11 01:58:12;;;;;;;8.07;5.53;;;;;;;;;;5014836;28;20197;-83
2022/02/11 02:32:25;;;;;;;10.60;6.18;;;;;;;;;;5003758;28;20294;-83
2022/02/11 02:56:37;;;;;;;10.50;5.60;;;;;;;;;;5008452;28;20192;-83
2022/02/11 02:59:04;;;;;;;5.80;5.30;;;;;;;;;;5017601;28;20185;-83
2022/02/11 03:01:54;;;;;;;7.68;5.68;;;;;;;;;;5060173;28;20178;-83
2022/02/11 03:51:11;;;;;;;7.25;6.55;;;;;;;;;;5019914;28;20270;-84
2022/02/11 04:55:26;;;;;;;6.35;5.20;;;;;;;;;;5018711;28;20198;-84
2022/02/11 05:00:40;;;;;;;8.10;5.55;;;;;;;;;;5013582;28;20210;-83
2022/02/11 05:03:09;;;;;;;8.55;6.30;;;;;;;;;;5032472;28;20201;-84
2022/02/11 05:05:50;;;;;;;8.45;6.15;;;;;;;;;;5028625;28;20189;-83
2022/02/11 05:08:17;;;;;;;9.07;5.82;;;;;;;;;;5010887;28;20528;-84
2022/02/11 05:10:44;;;;;;;9.55;5.50;;;;;;;;;;5048863;28;20179;-83
2022/02/11 05:13:10;;;;;;;6.13;4.55;;;;;;;;;;5028781;28;20218;-84
2022/02/11 05:15:37;;;;;;;8.25;5.13;;;;;;;;;;5032109;28;20195;-84
2022/02/11 05:18:03;;;;;;;7.05;4.75;;;;;;;;;;5032234;28;20178;-84
2022/02/11 05:20:29;;;;;;;10.57;5.13;;;;;;;;;;5023542;28;20186;-84
2022/02/11 05:22:56;;;;;;;6.95;5.05;;;;;;;;;;5043389;28;20282;-84
2022/02/11 05:25:22;;;;;;;8.45;5.13;;;;;;;;;;5028907;28;20299;-84
2022/02/11 05:27:48;;;;;;;11.02;6.60;;;;;;;;;;5023004;28;20213;-84
2022/02/11 05:30:14;;;;;;;5.68;4.88;;;;;;;;;;5043111;28;20206;-84
2022/02/11 05:32:40;;;;;;;8.05;5.30;;;;;;;;;;5041072;28;20277;-84
2022/02/11 05:35:06;;;;;;;5.85;3.97;;;;;;;;;;5040649;28;20237;-84
2022/02/11 05:37:32;;;;;;;7.13;5.43;;;;;;;;;;5018622;28;20656;-83
2022/02/11 05:39:59;;;;;;;9.60;5.55;;;;;;;;;;5024213;28;20182;-83
2022/02/11 05:42:25;;;;;;;11.60;4.68;;;;;;;;;;5041465;28;20300;-84
2022/02/11 05:44:51;;;;;;;5.68;4.50;;;;;;;;;;5015756;28;20210;-84
2022/02/11 05:47:17;;;;;;;4.78;4.32;;;;;;;;;;5027500;28;20218;-83
2022/02/11 05:49:43;;;;;;;7.57;4.63;;;;;;;;;;5029981;28;20752;-83
2022/02/11 05:52:09;;;;;;;4.93;3.78;;;;;;;;;;5032351;28;20547;-84
2022/02/11 05:54:35;;;;;;;7.60;4.20;;;;;;;;;;5035315;28;20658;-84
2022/02/11 05:57:01;;;;;;;4.10;3.70;;;;;;;;;;5028304;28;20213;-84
2022/02/11 05:59:27;;;;;;;7.97;3.60;;;;;;;;;;5025323;28;20206;-84
2022/02/11 06:01:53;;;;;;;4.57;3.35;;;;;;;;;;5044012;28;20237;-84
2022/02/11 06:04:20;;;;;;;4.93;3.30;;;;;;;;;;5033244;28;20212;-85
2022/02/11 06:06:46;;;;;;;5.53;4.93;;;;;;;;;;5026824;28;20186;-83
2022/02/11 06:09:12;;;;;;;6.38;4.00;;;;;;;;;;5025718;28;20183;-84
2022/02/11 06:11:38;;;;;;;7.78;4.72;;;;;;;;;;5028018;28;20264;-84
2022/02/11 06:14:04;;;;;;;8.50;5.13;;;;;;;;;;5038540;28;20191;-86
2022/02/11 06:16:30;;;;;;;5.35;3.70;;;;;;;;;;5027838;28;20273;-85
2022/02/11 06:18:56;;;;;;;5.60;4.50;;;;;;;;;;5013900;28;20735;-87
2022/02/11 06:21:23;;;;;;;5.45;4.72;;;;;;;;;;5049165;28;20236;-87
2022/02/11 06:23:55;;;;;;;5.57;4.53;;;;;;;;;;5046049;28;20208;-84
2022/02/11 06:26:21;;;;;;;7.70;4.45;;;;;;;;;;5008858;28;20194;-85
2022/02/11 06:28:47;;;;;;;5.80;4.25;;;;;;;;;;5013268;28;20171;-85
2022/02/11 06:31:13;;;;;;;6.85;4.40;;;;;;;;;;5030255;28;20207;-85
2022/02/11 06:33:39;;;;;;;5.57;3.70;;;;;;;;;;5028571;28;20262;-84
2022/02/11 06:36:05;;;;;;;6.55;3.58;;;;;;;;;;5023640;28;20206;-85
2022/02/11 06:38:31;;;;;;;6.60;4.10;;;;;;;;;;5019008;28;20244;-85
2022/02/11 06:40:57;;;;;;;4.95;4.15;;;;;;;;;;5027053;28;20171;-86
2022/02/11 06:43:23;;;;;;;5.68;4.35;;;;;;;;;;5029133;28;20276;-87
2022/02/11 06:45:49;;;;;;;4.60;4.18;;;;;;;;;;5020743;28;20182;-85
2022/02/11 06:48:16;;;;;;;4.60;3.60;;;;;;;;;;5032195;28;20278;-86
2022/02/11 06:50:43;;;;;;;10.93;5.28;;;;;;;;;;5040789;28;24711;-85
2022/02/11 06:53:10;;;;;;;6.80;4.07;;;;;;;;;;5010042;28;20186;-86
2022/02/11 06:55:36;;;;;;;10.32;5.65;;;;;;;;;;5028711;28;20224;-87
2022/02/11 06:58:02;;;;;;;9.18;5.13;;;;;;;;;;5026346;28;20193;-86
2022/02/11 07:00:28;;;;;;;7.03;3.97;;;;;;;;;;5032960;28;20187;-86
2022/02/11 07:02:54;;;;;;;6.30;4.82;;;;;;;;;;5027340;28;20210;-86
2022/02/11 07:05:20;;;;;;;5.70;4.38;;;;;;;;;;5009374;28;20182;-85
2022/02/11 07:07:47;;;;;;;6.60;4.50;;;;;;;;;;5009954;28;20172;-84
2022/02/11 07:10:13;;;;;;;9.13;4.80;;;;;;;;;;5024872;28;20186;-85
2022/02/11 07:12:39;;;;;;;5.90;4.30;;;;;;;;;;5036108;28;20218;-85
2022/02/11 07:15:06;;;;;;;9.32;6.15;;;;;;;;;;5026837;28;20321;-87
2022/02/11 07:17:33;;;;;;;7.28;6.40;;;;;;;;;;5033720;28;20189;-87
2022/02/11 07:19:59;;;;;;;14.30;6.40;;;;;;;;;;5020453;28;20170;-86
2022/02/11 07:22:25;;;;;;;11.68;6.20;;;;;;;;;;5024384;28;20237;-86
2022/02/11 07:24:53;;;;;;;9.48;5.90;;;;;;;;;;5018616;28;20215;-85
2022/02/11 07:27:19;;;;;;;10.48;7.28;;;;;;;;;;5029860;28;20241;-85
2022/02/11 07:29:45;;;;;;;9.27;5.97;;;;;;;;;;5026528;28;20272;-84
2022/02/11 07:32:11;;;;;;;10.60;6.00;;;;;;;;;;5037823;28;20170;-87
2022/02/11 07:34:37;;;;;;;9.73;6.20;;;;;;;;;;5040171;28;20221;-86
2022/02/11 07:37:04;;;;;;;7.90;5.97;;;;;;;;;;5016696;28;20186;-87
2022/02/11 07:39:31;;;;;;;10.63;6.82;;;;;;;;;;5044598;28;20306;-86
2022/02/11 07:41:57;;;;;;;11.27;6.45;;;;;;;;;;5026924;28;20182;-87
2022/02/11 07:44:23;;;;;;;12.38;7.57;;;;;;;;;;5022685;28;20203;-85
2022/02/11 07:46:51;;;;;;;8.25;7.45;;;;;;;;;;5038590;28;20252;-87
2022/02/11 07:49:17;;;;;;;8.32;6.30;;;;;;;;;;5013219;28;20183;-86
2022/02/11 07:51:43;;;;;;;10.65;6.38;;;;;;;;;;5023334;28;20186;-86
2022/02/11 07:54:09;;;;;;;9.57;6.40;;;;;;;;;;5023493;28;20758;-86
2022/02/11 07:56:35;;;;;;;9.27;5.97;;;;;;;;;;5014148;28;20261;-86
2022/02/11 07:59:01;;;;;;;8.63;5.72;;;;;;;;;;5009670;28;20223;-86
2022/02/11 08:01:27;;;;;;;12.90;7.40;;;;;;;;;;5028340;28;20194;-85
2022/02/11 08:03:53;;;;;;;10.00;6.82;;;;;;;;;;5013985;28;20210;-86
2022/02/11 08:06:19;;;;;;;7.38;6.55;;;;;;;;;;5022815;28;20593;-87
2022/02/11 08:08:45;;;;;;;8.40;6.53;;;;;;;;;;5032710;28;20229;-86
2022/02/11 08:11:11;;;;;;;11.32;6.53;;;;;;;;;;5039314;28;20201;-86
2022/02/11 08:13:37;;;;;;;10.18;8.98;;;;;;;;;;5035815;28;20511;-88
2022/02/11 08:16:04;;;;;;;15.77;10.57;;;;;;;;;;5037621;28;20197;-87
2022/02/11 08:18:30;;;;;;;12.15;8.70;;;;;;;;;;5021466;28;20439;-87
2022/02/11 08:20:56;;;;;;;8.90;7.43;;;;;;;;;;5036012;28;20187;-87
2022/02/11 08:23:24;;;;;;;8.93;6.35;;;;;;;;;;5038151;28;20615;-84
2022/02/11 08:25:50;;;;;;;7.57;5.88;;;;;;;;;;5025124;28;20198;-84
2022/02/11 08:28:17;;;;;;;8.77;5.65;;;;;;;;;;5047587;28;20712;-85
2022/02/11 08:30:44;;;;;;;10.57;6.32;;;;;;;;;;5051607;28;20186;-85
2022/02/11 08:33:10;;;;;;;9.77;7.25;;;;;;;;;;5042049;28;20268;-85
2022/02/11 08:35:36;;;;;;;8.82;6.18;;;;;;;;;;5015948;28;20193;-85
2022/02/11 08:38:02;;;;;;;7.70;6.72;;;;;;;;;;5025716;28;20282;-85
2022/02/11 08:40:28;;;;;;;15.98;7.30;;;;;;;;;;5025421;28;20273;-85
2022/02/11 08:42:54;;;;;;;11.10;5.95;;;;;;;;;;5022736;28;20213;-86
2022/02/11 08:45:20;;;;;;;10.82;6.40;;;;;;;;;;5042382;28;20191;-85
2022/02/11 08:47:46;;;;;;;10.80;6.90;;;;;;;;;;5023175;28;20271;-85
2022/02/11 08:50:18;;;;;;;7.05;4.93;;;;;;;;;;5033403;28;20170;-86
2022/02/11 08:52:44;;;;;;;6.95;5.13;;;;;;;;;;5017920;28;20171;-85
2022/02/11 08:55:11;;;;;;;12.60;6.40;;;;;;;;;;5015035;28;20214;-85
2022/02/11 08:57:45;;;;;;;8.43;5.25;;;;;;;;;;5032686;28;20670;-86
2022/02/11 09:00:11;;;;;;;11.77;6.85;;;;;;;;;;5037713;28;20190;-85
2022/02/11 09:02:37;;;;;;;6.72;5.20;;;;;;;;;;5041431;28;20182;-83
2022/02/11 09:05:03;;;;;;;10.38;5.95;;;;;;;;;;5030655;28;20290;-83
2022/02/11 09:07:30;;;;;;;11.45;5.90;;;;;;;;;;5023229;28;20205;-83
2022/02/11 09:09:56;;;;;;;8.90;5.32;;;;;;;;;;5022597;28;20479;-83
2022/02/11 09:12:22;;;;;;;5.97;5.05;;;;;;;;;;5013362;28;20190;-83
2022/02/11 09:14:48;;;;;;;6.88;5.00;;;;;;;;;;5021754;28;20281;-83
2022/02/11 09:17:14;;;;;;;5.65;5.10;;;;;;;;;;5018755;28;20175;-83
2022/02/11 09:19:40;;;;;;;9.35;5.22;;;;;;;;;;5006462;28;20185;-83
2022/02/11 09:22:06;;;;;;;8.70;5.55;;;;;;;;;;5032025;28;20213;-83
2022/02/11 09:24:32;;;;;;;7.22;5.28;;;;;;;;;;5024084;28;20260;-82
2022/02/11 09:26:58;;;;;;;9.88;4.88;;;;;;;;;;5043537;28;20179;-82
2022/02/11 09:29:24;;;;;;;6.18;5.30;;;;;;;;;;5032894;28;20224;-82
2022/02/11 09:31:51;;;;;;;9.00;5.70;;;;;;;;;;5028591;28;20245;-83
2022/02/11 09:34:17;;;;;;;9.02;5.65;;;;;;;;;;5027346;28;20186;-82
2022/02/11 09:36:43;;;;;;;9.52;4.90;;;;;;;;;;5037677;28;20194;-82
2022/02/11 09:39:10;;;;;;;10.32;3.90;;;;;;;;;;5028543;28;20330;-82
2022/02/11 09:41:37;;;;;;;7.70;4.47;;;;;;;;;;5024596;28;20194;-82
2022/02/11 09:44:05;;;;;;;5.65;4.00;;;;;;;;;;5007181;28;20209;-82
2022/02/11 09:46:31;;;;;;;9.65;3.17;;;;;;;;;;5038914;28;20186;-82
2022/02/11 09:48:58;;;;;;;7.03;3.65;;;;;;;;;;5020018;28;20218;-83
2022/02/11 09:51:24;;;;;;;10.27;3.65;;;;;;;;;;5024045;28;20198;-82
2022/02/11 09:53:51;;;;;;;9.18;3.53;;;;;;;;;;5026425;28;20206;-82
2022/02/11 09:56:17;;;;;;;9.50;3.70;;;;;;;;;;5049411;28;20197;-82
2022/02/11 09:58:43;;;;;;;8.68;3.72;;;;;;;;;;5067251;28;20201;-82
2022/02/11 10:01:10;;;;;;;9.52;3.75;;;;;;;;;;5021836;28;20258;-81
2022/02/11 10:03:36;;;;;;;5.68;3.60;;;;;;;;;;5013880;28;20278;-83
2022/02/11 10:06:03;;;;;;;6.60;3.88;;;;;;;;;;5013285;28;20648;-82
2022/02/11 10:08:31;;;;;;;8.32;4.25;;;;;;;;;;5039705;28;20195;-82
2022/02/11 10:10:58;;;;;;;7.28;3.70;;;;;;;;;;5027630;28;20198;-81
2022/02/11 10:13:25;;;;;;;11.68;4.35;;;;;;;;;;5023843;28;20222;-85
2022/02/11 10:15:56;;;;;;;8.73;3.47;;;;;;;;;;5038800;28;20415;-84
2022/02/11 10:18:26;;;;;;;6.03;3.28;;;;;;;;;;5021607;28;20182;-83
2022/02/11 10:21:21;;;;;;;13.80;5.50;;;;;;;;;;5026538;28;20178;-83
2022/02/11 10:23:48;;;;;;;7.85;3.65;;;;;;;;;;5039555;28;20226;-83
2022/02/11 10:26:15;;;;;;;19.23;5.13;;;;;;;;;;5038248;28;20182;-83
2022/02/11 10:28:43;;;;;;;12.68;4.20;;;;;;;;;;5012664;28;20206;-85
2022/02/11 10:31:12;;;;;;;5.88;3.90;;;;;;;;;;5011310;28;20255;-83
2022/02/11 10:33:52;;;;;;;14.93;4.57;;;;;;;;;;5020490;28;20187;-86
2022/02/11 10:36:28;;;;;;;9.15;3.80;;;;;;;;;;5016202;28;20266;-84
2022/02/11 10:39:03;;;;;;;9.25;3.70;;;;;;;;;;5025450;28;20650;-83
2022/02/11 10:41:29;;;;;;;4.70;3.50;;;;;;;;;;5027982;28;20214;-83
2022/02/11 10:44:15;;;;;;;6.53;3.92;;;;;;;;;;5034744;28;20202;-84
2022/02/11 10:46:45;;;;;;;11.02;3.50;;;;;;;;;;5022815;28;20656;-86
2022/02/11 10:49:12;;;;;;;7.32;4.05;;;;;;;;;;5015168;28;20623;-85
2022/02/11 10:51:39;;;;;;;15.48;4.70;;;;;;;;;;5031088;28;20277;-87
2022/02/11 10:54:22;;;;;;;10.25;3.80;;;;;;;;;;5027481;28;20186;-87
2022/02/11 10:56:49;;;;;;;9.60;3.72;;;;;;;;;;5051714;28;20209;-86
2022/02/11 10:59:23;;;;;;;6.80;3.92;;;;;;;;;;5031173;28;20248;-86
2022/02/11 11:01:49;;;;;;;8.60;3.30;;;;;;;;;;5056070;28;20559;-85
2022/02/11 11:04:15;;;;;;;21.05;4.88;;;;;;;;;;5029563;28;20285;-85
2022/02/11 11:06:41;;;;;;;13.30;5.13;;;;;;;;;;5042035;28;20179;-86
2022/02/11 11:09:09;;;;;;;12.32;4.30;;;;;;;;;;5049984;28;20186;-88
2022/02/11 11:11:35;;;;;;;5.15;3.05;;;;;;;;;;5022827;28;20178;-85
2022/02/11 11:14:02;;;;;;;4.97;3.47;;;;;;;;;;5025109;28;20193;-84
2022/02/11 11:16:28;;;;;;;7.07;3.65;;;;;;;;;;5018905;28;20186;-85
2022/02/11 11:18:54;;;;;;;5.82;3.20;;;;;;;;;;5018400;28;20198;-85
2022/02/11 11:21:23;;;;;;;8.57;2.78;;;;;;;;;;5036145;28;20213;-85
2022/02/11 11:23:57;;;;;;;8.73;3.33;;;;;;;;;;5053175;28;20761;-86
2022/02/11 11:26:43;;;;;;;7.30;3.47;;;;;;;;;;5040400;28;20290;-85
2022/02/11 11:29:15;;;;;;;8.95;4.03;;;;;;;;;;5019572;28;20177;-86
2022/02/11 11:31:52;;;;;;;6.63;2.30;;;;;;;;;;5021454;28;20671;-87
2022/02/11 11:34:18;;;;;;;4.10;2.47;;;;;;;;;;5019791;28;20194;-86
2022/02/11 11:36:48;;;;;;;4.82;2.30;;;;;;;;;;5038833;28;20190;-87
2022/02/11 11:39:15;;;;;;;7.38;3.53;;;;;;;;;;5038033;28;20230;-85
2022/02/11 11:41:41;;;;;;;9.57;3.03;;;;;;;;;;5038249;28;20236;-86
2022/02/11 11:44:18;;;;;;;7.40;3.10;;;;;;;;;;5010996;28;20222;-85
2022/02/11 11:46:48;;;;;;;3.15;2.00;;;;;;;;;;5022306;28;20216;-85
2022/02/11 11:49:20;;;;;;;10.07;2.80;;;;;;;;;;5046265;28;20205;-88
2022/02/11 11:51:46;;;;;;;4.68;2.67;;;;;;;;;;5032219;28;20193;-88
2022/02/11 11:54:18;;;;;;;8.67;3.10;;;;;;;;;;5038548;28;20186;-86
2022/02/11 11:56:53;;;;;;;6.35;3.10;;;;;;;;;;5054934;28;20950;-86
2022/02/11 11:59:19;;;;;;;5.75;3.05;;;;;;;;;;5038626;28;20193;-86
2022/02/11 12:01:54;;;;;;;6.77;3.50;;;;;;;;;;5043473;28;20189;-88
2022/02/11 12:04:31;;;;;;;6.18;3.05;;;;;;;;;;5050117;28;20461;-87
2022/02/11 12:06:57;;;;;;;8.32;3.00;;;;;;;;;;5052813;28;20186;-87
2022/02/11 12:09:24;;;;;;;10.85;3.22;;;;;;;;;;5053810;28;20609;-85
2022/02/11 12:12:09;;;;;;;6.68;3.08;;;;;;;;;;5023154;28;20182;-86
2022/02/11 12:14:36;;;;;;;9.30;3.10;;;;;;;;;;5046229;28;20540;-86
2022/02/11 12:17:03;;;;;;;5.55;2.95;;;;;;;;;;5056458;28;20197;-87
2022/02/11 12:19:30;;;;;;;5.65;2.38;;;;;;;;;;5037016;28;20221;-87
2022/02/11 12:21:56;;;;;;;6.15;2.97;;;;;;;;;;5016532;28;20201;-86
2022/02/11 12:27:20;;;;;;;5.20;3.30;;;;;;;;;;5018702;28;20666;-84
2022/02/11 12:29:57;;;;;;;7.38;2.40;;;;;;;;;;5053485;28;20206;-85
2022/02/11 12:32:24;;;;;;;4.80;2.50;;;;;;;;;;5019825;28;20171;-86
2022/02/11 12:34:51;;;;;;;4.13;2.25;;;;;;;;;;5039160;28;20179;-86
2022/02/11 12:37:18;;;;;;;4.40;1.75;;;;;;;;;;5018743;28;20187;-86
2022/02/11 12:39:44;;;;;;;7.50;2.03;;;;;;;;;;5040837;28;20246;-85
2022/02/11 12:42:11;;;;;;;6.50;2.15;;;;;;;;;;5039265;28;20182;-86
2022/02/11 12:44:38;;;;;;;2.30;2.00;;;;;;;;;;5030902;28;20210;-87
2022/02/11 12:47:04;;;;;;;3.47;2.10;;;;;;;;;;5030777;28;20170;-85
2022/02/11 12:49:33;;;;;;;4.20;1.92;;;;;;;;;;5022346;28;20186;-85
2022/02/11 12:51:59;;;;;;;4.72;1.70;;;;;;;;;;5037635;28;20183;-88
2022/02/11 12:54:25;;;;;;;3.85;1.92;;;;;;;;;;5035915;28;20197;-87
2022/02/11 12:57:00;;;;;;;6.80;2.92;;;;;;;;;;5040236;28;20277;-86
2022/02/11 12:59:26;;;;;;;3.70;1.70;;;;;;;;;;5022294;28;20185;-85
2022/02/11 13:01:52;;;;;;;3.25;1.58;;;;;;;;;;5055141;28;20187;-88
2022/02/11 13:04:19;;;;;;;7.95;2.28;;;;;;;;;;5013152;28;20211;-85
2022/02/11 13:06:45;;;;;;;6.32;2.22;;;;;;;;;;5043553;28;20202;-84
2022/02/11 13:09:11;;;;;;;6.78;2.00;;;;;;;;;;5015054;28;20182;-85
2022/02/11 13:11:39;;;;;;;5.13;1.98;;;;;;;;;;5041696;28;20245;-85
2022/02/11 13:14:07;;;;;;;4.82;2.75;;;;;;;;;;5023372;28;20174;-85
2022/02/11 13:16:33;;;;;;;7.90;2.70;;;;;;;;;;5021125;28;20220;-85
2022/02/11 13:19:12;;;;;;;10.95;2.83;;;;;;;;;;5041125;28;20222;-84
2022/02/11 13:21:38;;;;;;;7.07;2.13;;;;;;;;;;5041344;28;20309;-85
2022/02/11 13:24:05;;;;;;;5.53;2.00;;;;;;;;;;5041155;28;20211;-85
2022/02/11 13:26:31;;;;;;;9.57;2.75;;;;;;;;;;5041330;28;20265;-86
2022/02/11 13:28:57;;;;;;;6.57;2.83;;;;;;;;;;5058913;28;20600;-85
2022/02/11 13:31:23;;;;;;;12.43;3.00;;;;;;;;;;5040794;28;20197;-84
2022/02/11 13:34:07;;;;;;;3.50;1.98;;;;;;;;;;5034060;28;20190;-83
2022/02/11 13:36:33;;;;;;;6.70;2.60;;;;;;;;;;5026434;28;20186;-85
2022/02/11 13:39:01;;;;;;;5.75;2.45;;;;;;;;;;5013885;28;20305;-86
2022/02/11 13:41:29;;;;;;;4.47;2.22;;;;;;;;;;5016356;28;20175;-86
2022/02/11 13:43:55;;;;;;;4.50;2.20;;;;;;;;;;5025308;28;20202;-84
2022/02/11 13:46:31;;;;;;;6.82;2.63;;;;;;;;;;5044276;28;20191;-85
2022/02/11 13:48:57;;;;;;;9.10;2.40;;;;;;;;;;5047542;28;20174;-86
2022/02/11 13:51:23;;;;;;;4.72;2.55;;;;;;;;;;5015766;28;20189;-84
2022/02/11 13:53:53;;;;;;;5.68;2.45;;;;;;;;;;5022753;28;20190;-84
2022/02/11 13:56:19;;;;;;;5.75;2.20;;;;;;;;;;5037312;28;20242;-84
2022/02/11 13:59:01;;;;;;;9.32;2.95;;;;;;;;;;5050988;28;20175;-83
2022/02/11 14:01:31;;;;;;;5.85;2.30;;;;;;;;;;5055569;28;20560;-85
2022/02/11 14:04:15;;;;;;;5.70;2.50;;;;;;;;;;5039814;28;20210;-85
2022/02/11 14:06:48;;;;;;;5.57;2.30;;;;;;;;;;5024918;28;20175;-84
2022/02/11 14:09:32;;;;;;;10.98;2.35;;;;;;;;;;5017587;28;20190;-85
2022/02/11 14:11:58;;;;;;;6.65;2.17;;;;;;;;;;5041914;28;20236;-85
2022/02/11 14:14:25;;;;;;;6.05;2.20;;;;;;;;;;5009132;28;20182;-86
2022/02/11 14:16:51;;;;;;;4.25;2.53;;;;;;;;;;5027052;28;20175;-87
2022/02/11 14:19:24;;;;;;;10.98;3.03;;;;;;;;;;5019722;28;20226;-84
2022/02/11 14:21:51;;;;;;;8.88;2.10;;;;;;;;;;5022609;28;20186;-86
2022/02/11 14:24:17;;;;;;;7.03;2.42;;;;;;;;;;5038743;28;20233;-84
2022/02/11 14:26:43;;;;;;;4.40;2.55;;;;;;;;;;5040121;28;20527;-85
2022/02/11 14:29:11;;;;;;;9.45;3.60;;;;;;;;;;5024345;28;20178;-85
2022/02/11 14:31:39;;;;;;;6.07;2.30;;;;;;;;;;5044351;28;20179;-85
2022/02/11 14:34:05;;;;;;;19.58;2.83;;;;;;;;;;5051620;28;20741;-84
2022/02/11 14:36:32;;;;;;;6.15;1.73;;;;;;;;;;5047704;28;20261;-84
2022/02/11 14:38:58;;;;;;;8.00;2.35;;;;;;;;;;5039061;28;20237;-84
2022/02/11 14:44:09;;;;;;;3.17;2.10;;;;;;;;;;5022142;28;20261;-84
2022/02/11 14:46:35;;;;;;;6.70;1.90;;;;;;;;;;5034283;28;20255;-84
2022/02/11 14:49:01;;;;;;;5.57;2.25;;;;;;;;;;5032399;28;20266;-85
2022/02/11 14:51:27;;;;;;;2.58;1.63;;;;;;;;;;5036247;28;20214;-85
2022/02/11 14:53:53;;;;;;;2.60;1.40;;;;;;;;;;5020013;28;20231;-84
2022/02/11 14:56:19;;;;;;;5.70;2.20;;;;;;;;;;5054279;28;20185;-83
2022/02/11 14:58:46;;;;;;;2.50;1.88;;;;;;;;;;5037516;28;20183;-84
2022/02/11 15:01:12;;;;;;;5.00;2.25;;;;;;;;;;5035258;28;20190;-85
2022/02/11 15:03:38;;;;;;;3.60;2.70;;;;;;;;;;5019099;28;20293;-84
2022/02/11 15:06:04;;;;;;;5.82;1.95;;;;;;;;;;5036592;28;20218;-84
2022/02/11 15:08:30;;;;;;;5.30;2.38;;;;;;;;;;5043002;28;20262;-83
2022/02/11 15:10:56;;;;;;;7.05;2.00;;;;;;;;;;5042119;28;20173;-85
2022/02/11 15:13:22;;;;;;;3.28;1.80;;;;;;;;;;5029495;28;20197;-86
2022/02/11 15:15:48;;;;;;;2.90;1.98;;;;;;;;;;5016719;28;20186;-84
2022/02/11 15:18:14;;;;;;;7.22;2.78;;;;;;;;;;5038974;28;20209;-83
2022/02/11 15:20:42;;;;;;;4.20;1.50;;;;;;;;;;5038003;28;20259;-83
2022/02/11 15:23:08;;;;;;;4.88;1.58;;;;;;;;;;5049895;28;20196;-83
2022/02/11 15:25:34;;;;;;;4.53;1.88;;;;;;;;;;5019429;28;20225;-83
2022/02/11 15:28:00;;;;;;;4.38;1.83;;;;;;;;;;5023481;28;20662;-82
2022/02/11 15:30:26;;;;;;;1.95;1.60;;;;;;;;;;5038747;28;20649;-84
2022/02/11 15:32:52;;;;;;;3.80;2.17;;;;;;;;;;5019651;28;20262;-85
2022/02/11 15:35:18;;;;;;;4.72;2.10;;;;;;;;;;5053676;28;20179;-84
2022/02/11 15:37:44;;;;;;;6.13;2.10;;;;;;;;;;5038842;28;20253;-83
2022/02/11 15:40:11;;;;;;;4.78;2.70;;;;;;;;;;5034835;28;20182;-85
2022/02/11 15:42:37;;;;;;;5.20;2.92;;;;;;;;;;5035361;28;20179;-82
2022/02/11 15:45:03;;;;;;;6.97;2.30;;;;;;;;;;5021298;28;20202;-83
2022/02/11 15:47:29;;;;;;;4.80;2.20;;;;;;;;;;5026171;28;20191;-85
2022/02/11 15:49:56;;;;;;;7.55;3.67;;;;;;;;;;5056154;28;20238;-84
2022/02/11 15:52:22;;;;;;;8.60;2.58;;;;;;;;;;5023037;28;20209;-85
2022/02/11 15:54:48;;;;;;;2.90;2.40;;;;;;;;;;5037965;28;20186;-83
2022/02/11 15:57:15;;;;;;;8.25;2.70;;;;;;;;;;5037736;28;20214;-83
2022/02/11 15:59:42;;;;;;;7.18;2.30;;;;;;;;;;5037622;28;20210;-84
2022/02/11 16:02:08;;;;;;;4.35;2.60;;;;;;;;;;5023772;28;20206;-83
2022/02/11 16:04:34;;;;;;;6.07;3.00;;;;;;;;;;5050023;28;20245;-83
2022/02/11 16:07:00;;;;;;;6.47;2.22;;;;;;;;;;5020176;28;20186;-85
2022/02/11 16:09:27;;;;;;;4.50;2.47;;;;;;;;;;5052475;28;20210;-84
2022/02/11 16:11:53;;;;;;;6.30;2.90;;;;;;;;;;5037619;28;20221;-83
2022/02/11 16:14:19;;;;;;;6.18;2.95;;;;;;;;;;5037835;28;20206;-84
2022/02/11 16:16:45;;;;;;;6.70;2.58;;;;;;;;;;5038246;28;20173;-82
2022/02/11 16:19:11;;;;;;;5.78;3.55;;;;;;;;;;5029535;28;20221;-82
2022/02/11 16:21:37;;;;;;;5.80;3.47;;;;;;;;;;5015022;28;20191;-83
2022/02/11 16:24:03;;;;;;;4.10;2.88;;;;;;;;;;5041529;28;20285;-83
2022/02/11 16:26:29;;;;;;;7.72;5.57;;;;;;;;;;5006156;28;20175;-82
2022/02/11 16:28:55;;;;;;;7.30;4.90;;;;;;;;;;5039461;28;20173;-83
2022/02/11 16:31:26;;;;;;;9.60;6.72;;;;;;;;;;5037676;28;20428;-83
2022/02/11 16:33:53;;;;;;;8.13;5.65;;;;;;;;;;5016249;28;20191;-83
2022/02/11 16:36:19;;;;;;;7.97;4.60;;;;;;;;;;5020570;28;20187;-83
2022/02/11 16:38:46;;;;;;;5.97;3.30;;;;;;;;;;5025527;28;20253;-82
2022/02/11 16:41:13;;;;;;;6.60;3.40;;;;;;;;;;5037325;28;20175;-82
2022/02/11 16:43:40;;;;;;;6.25;3.65;;;;;;;;;;5038394;28;20202;-82
2022/02/11 16:46:06;;;;;;;8.43;4.90;;;;;;;;;;5014183;28;20178;-82
2022/02/11 16:48:32;;;;;;;7.28;4.63;;;;;;;;;;5045496;28;20174;-82
2022/02/11 16:50:59;;;;;;;5.50;3.83;;;;;;;;;;5037263;28;20179;-83
2022/02/11 16:53:25;;;;;;;14.77;4.45;;;;;;;;;;5022272;28;20688;-82
2022/02/11 16:55:51;;;;;;;7.70;4.75;;;;;;;;;;5039531;28;20185;-82
2022/02/11 16:58:17;;;;;;;8.63;4.60;;;;;;;;;;5043112;28;20182;-82
2022/02/11 17:00:43;;;;;;;5.30;3.92;;;;;;;;;;5042523;28;20191;-82
2022/02/11 17:03:09;;;;;;;9.98;4.55;;;;;;;;;;5047840;28;20746;-82
2022/02/11 17:05:35;;;;;;;10.63;4.68;;;;;;;;;;5021574;28;20181;-81
2022/02/11 17:08:01;;;;;;;7.53;4.13;;;;;;;;;;5047365;28;20183;-82
2022/02/11 17:10:27;;;;;;;7.90;4.53;;;;;;;;;;5049912;28;20246;-82
2022/02/11 17:12:53;;;;;;;8.68;4.55;;;;;;;;;;5017543;28;20236;-81
2022/02/11 17:15:19;;;;;;;6.82;4.32;;;;;;;;;;5012664;28;20217;-82
2022/02/11 17:17:47;;;;;;;9.73;5.13;;;;;;;;;;5018859;28;20233;-82
2022/02/11 17:20:14;;;;;;;7.85;5.80;;;;;;;;;;5012443;28;20167;-82
2022/02/11 17:22:49;;;;;;;16.25;8.38;;;;;;;;;;5036880;28;20604;-82
2022/02/11 17:25:15;;;;;;;13.23;8.25;;;;;;;;;;5033773;28;20201;-82
2022/02/11 17:27:41;;;;;;;13.75;8.15;;;;;;;;;;5037133;28;20179;-82
2022/02/11 17:30:11;;;;;;;15.15;8.35;;;;;;;;;;5035711;28;20205;-81
2022/02/11 17:32:38;;;;;;;22.63;12.10;;;;;;;;;;5022333;28;20244;-82
2022/02/11 17:35:04;;;;;;;24.70;12.70;;;;;;;;;;5011272;28;20285;-82
2022/02/11 17:37:30;;;;;;;21.33;11.10;;;;;;;;;;5053878;28;20190;-82
2022/02/11 17:39:56;;;;;;;15.90;13.15;;;;;;;;;;5052902;28;20186;-82
2022/02/11 17:42:22;;;;;;;13.65;10.70;;;;;;;;;;5052140;28;20214;-82
2022/02/11 17:44:48;;;;;;;17.77;10.75;;;;;;;;;;5039097;28;20218;-82
2022/02/11 17:47:15;;;;;;;31.10;17.25;;;;;;;;;;5056082;28;20357;-82
2022/02/11 17:49:41;;;;;;;27.77;15.38;;;;;;;;;;5037772;28;20723;-82
2022/02/11 17:52:10;;;;;;;22.95;13.02;;;;;;;;;;5010294;28;20207;-82
2022/02/11 17:54:36;;;;;;;29.75;17.17;;;;;;;;;;5017547;28;20193;-84
2022/02/11 17:57:02;;;;;;;16.55;13.82;;;;;;;;;;5037774;28;20219;-83
2022/02/11 17:59:28;;;;;;;18.33;13.07;;;;;;;;;;5022959;28;20183;-83
2022/02/11 18:01:54;;;;;;;16.47;12.03;;;;;;;;;;5036262;28;20278;-83
2022/02/11 18:04:30;;;;;;;18.05;12.07;;;;;;;;;;5051822;28;20836;-82
2022/02/11 18:06:57;;;;;;;17.23;11.85;;;;;;;;;;5020154;28;20174;-83
2022/02/11 18:09:26;;;;;;;16.70;11.75;;;;;;;;;;5046651;28;20202;-83
2022/02/11 18:11:52;;;;;;;18.48;12.10;;;;;;;;;;5054583;28;20246;-83
2022/02/11 18:14:18;;;;;;;22.33;14.48;;;;;;;;;;5008858;28;20179;-82
2022/02/11 18:16:46;;;;;;;24.45;16.08;;;;;;;;;;5056347;28;20236;-83
2022/02/11 18:19:14;;;;;;;24.33;14.45;;;;;;;;;;5024586;28;20349;-83
2022/02/11 18:21:40;;;;;;;18.15;14.07;;;;;;;;;;5055903;28;20351;-83
2022/02/11 18:24:07;;;;;;;19.17;13.27;;;;;;;;;;5064467;28;20206;-83
2022/02/11 18:26:33;;;;;;;23.35;14.20;;;;;;;;;;5056208;28;20194;-83
2022/02/11 18:28:59;;;;;;;30.08;16.65;;;;;;;;;;5011660;28;20194;-84
2022/02/11 18:31:27;;;;;;;23.05;17.10;;;;;;;;;;5022005;28;20178;-82
2022/02/11 18:33:54;;;;;;;22.45;16.23;;;;;;;;;;5059690;28;20196;-82
2022/02/11 18:36:22;;;;;;;23.65;18.30;;;;;;;;;;5041410;28;20198;-81
2022/02/11 18:38:48;;;;;;;24.45;15.45;;;;;;;;;;5040763;28;20714;-81